Time;durP1;ratioP1;P1;durP2;ratioP2;P2;SDS_P1;SDS_P2;PMS_P1;PMS_P2;Temp;Humidity;BMP_temperature;BMP_pressure;BME280_temperature;BME280_humidity;BME280_pressure;Samples;Min_cycle;Max_cycle;Signal;HPM_P1;HPM_P2
2022/12/04 00:01:58;;;;;;;0.50;0.50;;;1.50;99.90;;;;;;5134593;27;20458;-80
2022/12/04 00:04:25;;;;;;;1.13;0.60;;;1.50;99.90;;;;;;5134501;27;20427;-80
2022/12/04 00:06:55;;;;;;;0.30;0.30;;;1.40;99.90;;;;;;5134530;27;20417;-79
2022/12/04 00:09:22;;;;;;;0.40;0.40;;;1.30;99.90;;;;;;5134540;27;20536;-80
2022/12/04 00:11:49;;;;;;;0.40;0.40;;;1.30;99.90;;;;;;5134084;27;20906;-80
2022/12/04 00:14:16;;;;;;;0.60;0.60;;;1.30;99.90;;;;;;5134339;27;20451;-80
2022/12/04 00:16:43;;;;;;;0.40;0.40;;;1.30;99.90;;;;;;5134096;27;20457;-79
2022/12/04 00:19:10;;;;;;;3.30;1.20;;;1.30;99.90;;;;;;5134022;27;20997;-79
2022/12/04 00:21:37;;;;;;;4.97;1.97;;;1.30;99.90;;;;;;5133949;27;20470;-80
2022/12/04 00:24:06;;;;;;;0.63;0.43;;;1.20;99.90;;;;;;5134318;27;20450;-80
2022/12/04 00:26:33;;;;;;;0.57;0.40;;;1.30;99.90;;;;;;5133922;27;20996;-80
2022/12/04 00:29:00;;;;;;;1.43;0.70;;;1.30;99.90;;;;;;5134290;27;20845;-80
2022/12/04 00:31:29;;;;;;;0.30;0.30;;;1.30;99.90;;;;;;5133998;27;20976;-80
2022/12/04 00:33:56;;;;;;;0.63;0.63;;;1.30;99.90;;;;;;5134249;27;20447;-80
2022/12/04 00:36:25;;;;;;;1.47;1.47;;;1.30;99.90;;;;;;5134131;27;20462;-80
2022/12/04 00:38:52;;;;;;;0.83;0.83;;;1.30;99.90;;;;;;5134085;27;20451;-79
2022/12/04 00:41:22;;;;;;;0.83;0.73;;;1.30;99.90;;;;;;5134182;27;20461;-79
2022/12/04 00:43:49;;;;;;;0.70;0.60;;;1.30;99.90;;;;;;5134452;27;20442;-79
2022/12/04 00:46:16;;;;;;;1.03;0.50;;;1.30;99.90;;;;;;5134037;27;20459;-80
2022/12/04 00:48:44;;;;;;;0.40;0.40;;;1.40;99.90;;;;;;5134877;27;20447;-79
2022/12/04 00:51:13;;;;;;;0.97;0.97;;;1.40;99.90;;;;;;5134091;27;20435;-80
2022/12/04 00:53:40;;;;;;;0.50;0.50;;;1.40;99.90;;;;;;5133749;27;20442;-80
2022/12/04 00:56:08;;;;;;;1.03;0.60;;;1.40;99.90;;;;;;5133986;27;20484;-79
2022/12/04 00:58:36;;;;;;;1.27;0.87;;;1.40;99.90;;;;;;5133715;27;20426;-80
2022/12/04 01:01:06;;;;;;;0.70;0.60;;;1.40;99.90;;;;;;5133575;27;20925;-79
2022/12/04 01:03:33;;;;;;;0.40;0.33;;;1.30;99.90;;;;;;5134004;27;20530;-78
2022/12/04 01:06:00;;;;;;;0.83;0.60;;;1.40;99.90;;;;;;5133543;27;20999;-79
2022/12/04 01:08:27;;;;;;;0.30;0.30;;;1.40;99.90;;;;;;5133904;27;20446;-79
2022/12/04 01:10:53;;;;;;;0.50;0.50;;;1.30;99.90;;;;;;5133597;27;20442;-79
2022/12/04 01:13:22;;;;;;;0.50;0.50;;;1.30;99.90;;;;;;5133897;27;20449;-79
2022/12/04 01:15:50;;;;;;;2.87;1.17;;;1.40;99.90;;;;;;5133781;27;20466;-79
2022/12/04 01:18:17;;;;;;;3.43;0.60;;;1.40;99.90;;;;;;5133586;27;20910;-79
2022/12/04 01:20:47;;;;;;;0.30;0.30;;;1.50;99.90;;;;;;5133424;27;20482;-79
2022/12/04 01:23:14;;;;;;;0.57;0.57;;;1.50;99.90;;;;;;5133463;27;20953;-79
2022/12/04 01:25:41;;;;;;;0.70;0.70;;;1.50;99.90;;;;;;5136454;27;20977;-79
2022/12/04 01:28:07;;;;;;;1.10;0.70;;;1.50;99.90;;;;;;5137109;27;20990;-79
2022/12/04 01:30:34;;;;;;;0.50;0.50;;;1.60;99.90;;;;;;5137053;27;21013;-79
2022/12/04 01:33:02;;;;;;;0.40;0.40;;;1.60;99.90;;;;;;5137086;27;20450;-79
2022/12/04 01:35:29;;;;;;;1.23;0.83;;;1.60;99.90;;;;;;5136886;27;20474;-79
2022/12/04 01:37:56;;;;;;;0.30;0.30;;;1.60;99.90;;;;;;5137216;27;20453;-79
2022/12/04 01:40:23;;;;;;;0.40;0.40;;;1.60;99.90;;;;;;5137726;27;20489;-79
2022/12/04 01:42:49;;;;;;;0.77;0.77;;;1.50;99.90;;;;;;5136800;27;20968;-79
2022/12/04 01:45:39;;;;;;;0.60;0.50;;;1.50;99.90;;;;;;5136722;27;20466;-78
2022/12/04 01:48:15;;;;;;;0.70;0.70;;;1.50;99.90;;;;;;5137070;27;20423;-80
2022/12/04 01:50:44;;;;;;;0.30;0.20;;;1.50;99.90;;;;;;5137021;27;20435;-79
2022/12/04 01:53:11;;;;;;;2.43;1.10;;;1.50;99.90;;;;;;5136962;27;20457;-79
2022/12/04 01:55:38;;;;;;;1.40;1.30;;;1.50;99.90;;;;;;5136813;27;20470;-79
2022/12/04 01:58:06;;;;;;;0.50;0.47;;;1.40;99.90;;;;;;5136855;27;20438;-79
2022/12/04 02:00:33;;;;;;;1.43;1.33;;;1.50;99.90;;;;;;5136378;27;20497;-79
2022/12/04 02:03:01;;;;;;;0.30;0.30;;;1.40;99.90;;;;;;5136772;27;20418;-79
2022/12/04 02:05:29;;;;;;;0.30;0.30;;;1.40;99.90;;;;;;5136632;27;20458;-79
2022/12/04 02:07:59;;;;;;;1.93;0.60;;;1.40;99.90;;;;;;5136701;27;20465;-79
2022/12/04 02:10:35;;;;;;;1.70;1.60;;;1.40;99.90;;;;;;5136645;27;20423;-80
2022/12/04 02:13:10;;;;;;;2.60;2.43;;;1.40;99.90;;;;;;5136943;27;20431;-80
2022/12/04 02:15:45;;;;;;;0.70;0.70;;;1.40;99.90;;;;;;5136176;27;20437;-80
2022/12/04 02:18:22;;;;;;;3.30;0.70;;;1.40;99.90;;;;;;5136545;27;20602;-80
2022/12/04 02:20:56;;;;;;;0.50;0.50;;;1.40;99.90;;;;;;5136058;27;20498;-80
2022/12/04 02:23:50;;;;;;;0.50;0.50;;;1.30;99.90;;;;;;5136365;27;20438;-80
2022/12/04 02:26:38;;;;;;;3.07;0.60;;;1.40;99.90;;;;;;5136238;27;20478;-80
2022/12/04 02:29:12;;;;;;;2.30;2.20;;;1.40;99.90;;;;;;5133616;27;20455;-80
2022/12/04 02:31:43;;;;;;;2.67;1.63;;;1.40;99.90;;;;;;5135920;27;20431;-80
2022/12/04 02:34:15;;;;;;;1.30;1.03;;;1.40;99.90;;;;;;5136223;27;20443;-80
2022/12/04 02:36:48;;;;;;;12.43;2.07;;;1.40;99.90;;;;;;5134664;27;20435;-80
2022/12/04 02:39:22;;;;;;;1.53;1.43;;;1.50;99.90;;;;;;5136045;27;20427;-80
2022/12/04 02:41:55;;;;;;;0.77;0.77;;;1.50;99.90;;;;;;5136045;27;20427;-79
2022/12/04 02:44:27;;;;;;;0.67;0.67;;;1.40;99.90;;;;;;5135919;27;20423;-79
2022/12/04 02:46:58;;;;;;;0.40;0.40;;;1.40;99.90;;;;;;5135938;27;20427;-80
2022/12/04 02:49:29;;;;;;;1.83;0.90;;;1.40;99.90;;;;;;5135871;27;20438;-80
2022/12/04 02:51:58;;;;;;;3.17;0.83;;;1.40;99.90;;;;;;5135547;27;20910;-80
2022/12/04 02:54:31;;;;;;;0.50;0.50;;;1.30;99.90;;;;;;5135716;27;20466;-79
2022/12/04 02:56:59;;;;;;;1.47;1.37;;;1.40;99.90;;;;;;5135927;27;20443;-79
2022/12/04 02:59:33;;;;;;;3.60;1.67;;;1.40;99.90;;;;;;5135553;27;20447;-79
2022/12/04 03:02:06;;;;;;;1.03;1.03;;;1.40;99.90;;;;;;5135650;27;20431;-79
2022/12/04 03:04:33;;;;;;;0.30;0.30;;;1.40;99.90;;;;;;5135517;27;20465;-79
2022/12/04 03:07:05;;;;;;;4.23;1.33;;;1.50;99.90;;;;;;5135511;27;20533;-80
2022/12/04 03:09:36;;;;;;;1.60;1.50;;;1.50;99.90;;;;;;5135526;27;20805;-80
2022/12/04 03:12:09;;;;;;;0.70;0.70;;;1.50;99.90;;;;;;5135963;27;20905;-80
2022/12/04 03:14:42;;;;;;;0.30;0.30;;;1.60;99.90;;;;;;5135300;27;20467;-79
2022/12/04 03:17:14;;;;;;;0.30;0.30;;;1.60;99.90;;;;;;5135360;27;20454;-79
2022/12/04 03:19:46;;;;;;;0.40;0.40;;;1.50;99.90;;;;;;5134929;27;21022;-79
2022/12/04 03:22:17;;;;;;;0.40;0.40;;;1.50;99.90;;;;;;5134828;27;20481;-79
2022/12/04 03:24:48;;;;;;;0.50;0.50;;;1.50;99.90;;;;;;5135148;27;20471;-79
2022/12/04 03:27:23;;;;;;;0.40;0.40;;;1.50;99.90;;;;;;5135211;27;20502;-80
2022/12/04 03:29:58;;;;;;;0.80;0.60;;;1.50;99.90;;;;;;5135384;27;20804;-80
2022/12/04 03:32:30;;;;;;;2.97;0.67;;;1.50;99.90;;;;;;5135084;27;20426;-79
2022/12/04 03:35:01;;;;;;;0.83;0.50;;;1.40;99.90;;;;;;5134954;27;20554;-79
2022/12/04 03:37:36;;;;;;;1.37;0.70;;;1.40;99.90;;;;;;5134663;27;20434;-80
2022/12/04 03:40:10;;;;;;;0.40;0.40;;;1.40;99.90;;;;;;5134875;27;20470;-80
2022/12/04 03:42:41;;;;;;;2.10;1.60;;;1.30;99.90;;;;;;5134555;27;20426;-80
2022/12/04 03:45:17;;;;;;;0.40;0.40;;;1.40;99.90;;;;;;5134764;27;20475;-80
2022/12/04 03:47:53;;;;;;;0.30;0.30;;;1.40;99.90;;;;;;5134483;27;20431;-79
2022/12/04 03:50:28;;;;;;;0.33;0.33;;;1.40;99.90;;;;;;5134801;27;20438;-79
2022/12/04 03:53:03;;;;;;;1.27;0.90;;;1.50;99.90;;;;;;5134789;27;20783;-79
2022/12/04 03:55:35;;;;;;;0.53;0.53;;;1.50;99.90;;;;;;5134624;27;20469;-79
2022/12/04 03:58:06;;;;;;;0.70;0.40;;;1.50;99.90;;;;;;5134668;27;20426;-79
2022/12/04 04:00:39;;;;;;;0.77;0.70;;;1.50;99.90;;;;;;5134553;27;20466;-80
2022/12/04 04:03:11;;;;;;;2.57;2.47;;;1.50;99.90;;;;;;5134580;27;20435;-79
2022/12/04 04:05:43;;;;;;;0.93;0.80;;;1.50;99.90;;;;;;5134174;27;20981;-80
2022/12/04 04:08:28;;;;;;;0.87;0.87;;;1.50;99.90;;;;;;5134560;27;20434;-80
2022/12/04 04:11:00;;;;;;;0.50;0.50;;;1.40;99.90;;;;;;5134162;27;20438;-79
2022/12/04 04:24:45;;;;;;;0.40;0.40;;;1.40;99.90;;;;;;5134347;28;20417;-79
2022/12/04 04:27:13;;;;;;;0.40;0.40;;;1.30;99.90;;;;;;5134360;27;20438;-79
2022/12/04 04:29:41;;;;;;;0.40;0.40;;;1.30;99.90;;;;;;5134267;27;20447;-80
2022/12/04 04:32:13;;;;;;;0.77;0.77;;;1.30;99.90;;;;;;5134264;27;20828;-80
2022/12/04 04:34:47;;;;;;;0.50;0.50;;;1.30;99.90;;;;;;5134217;27;20466;-80
2022/12/04 04:37:21;;;;;;;2.30;0.73;;;1.30;99.90;;;;;;5133925;27;20930;-80
2022/12/04 04:39:56;;;;;;;1.00;1.00;;;1.30;99.90;;;;;;5133856;27;20923;-80
2022/12/04 04:42:27;;;;;;;0.60;0.60;;;1.40;99.90;;;;;;5134247;27;20405;-80
2022/12/04 04:45:00;;;;;;;1.30;1.13;;;1.40;99.90;;;;;;5134086;27;20470;-80
2022/12/04 04:47:34;;;;;;;0.30;0.20;;;1.50;99.90;;;;;;5134214;27;20422;-80
2022/12/04 04:50:04;;;;;;;0.30;0.30;;;1.50;99.90;;;;;;5133864;27;20426;-80
2022/12/04 04:52:32;;;;;;;1.63;1.30;;;1.50;99.90;;;;;;5134095;27;20438;-80
2022/12/04 04:55:00;;;;;;;0.30;0.30;;;1.40;99.90;;;;;;5134596;27;20442;-79
2022/12/04 04:57:29;;;;;;;2.77;2.40;;;1.40;99.90;;;;;;5134053;27;20439;-79
2022/12/04 04:59:56;;;;;;;0.30;0.30;;;1.40;99.90;;;;;;5135648;27;20450;-80
2022/12/04 05:02:25;;;;;;;1.40;1.40;;;1.40;99.90;;;;;;5137986;27;20445;-80
2022/12/04 05:04:54;;;;;;;0.30;0.30;;;1.40;99.90;;;;;;5137893;27;20477;-79
2022/12/04 05:07:20;;;;;;;0.90;0.50;;;1.50;99.90;;;;;;5137873;27;20442;-80
2022/12/04 05:09:47;;;;;;;0.30;0.30;;;1.50;99.90;;;;;;5137519;27;20941;-80
2022/12/04 05:12:14;;;;;;;0.30;0.20;;;1.50;99.90;;;;;;5137765;27;20442;-80
2022/12/04 05:14:40;;;;;;;2.53;0.73;;;1.50;99.90;;;;;;5137668;27;20466;-80
2022/12/04 05:17:07;;;;;;;0.50;0.50;;;1.50;99.90;;;;;;5137672;27;20446;-80
2022/12/04 05:22:22;;;;;;;0.73;0.57;;;1.50;99.90;;;;;;5137660;27;20428;-79
2022/12/04 05:24:49;;;;;;;0.30;0.30;;;1.40;99.90;;;;;;5137509;27;20466;-79
2022/12/04 05:27:16;;;;;;;0.47;0.47;;;1.40;99.90;;;;;;5137156;27;20949;-79
2022/12/04 05:29:42;;;;;;;0.40;0.40;;;1.40;99.90;;;;;;5137466;27;20448;-80
2022/12/04 05:32:09;;;;;;;0.57;0.57;;;1.40;99.90;;;;;;5137373;27;20447;-80
2022/12/04 05:34:36;;;;;;;0.60;0.60;;;1.40;99.90;;;;;;5137295;27;20466;-80
2022/12/04 05:37:03;;;;;;;0.37;0.37;;;1.30;99.90;;;;;;5137051;27;20913;-79
2022/12/04 05:39:31;;;;;;;0.30;0.30;;;1.20;99.90;;;;;;5137243;27;20818;-80
2022/12/04 05:41:58;;;;;;;0.80;0.50;;;1.30;99.90;;;;;;5137105;27;20470;-79
2022/12/04 05:44:25;;;;;;;1.53;1.10;;;1.30;99.90;;;;;;5137060;27;20449;-79
2022/12/04 05:46:51;;;;;;;0.40;0.40;;;1.40;99.90;;;;;;5136810;27;20931;-80
2022/12/04 05:49:18;;;;;;;0.30;0.30;;;1.30;99.90;;;;;;5136755;27;20442;-80
2022/12/04 05:51:45;;;;;;;0.30;0.27;;;1.30;99.90;;;;;;5136672;27;20443;-79
2022/12/04 05:54:12;;;;;;;3.07;1.47;;;1.30;99.90;;;;;;5136969;27;20417;-79
2022/12/04 05:56:40;;;;;;;1.47;0.80;;;1.40;99.90;;;;;;5136605;27;20988;-79
2022/12/04 05:59:07;;;;;;;0.50;0.50;;;1.30;99.90;;;;;;5136483;27;20814;-79
2022/12/04 06:01:33;;;;;;;0.30;0.30;;;1.30;99.90;;;;;;5136450;27;20997;-80
2022/12/04 06:04:00;;;;;;;0.30;0.20;;;1.40;99.90;;;;;;5136505;27;20443;-80
2022/12/04 06:06:27;;;;;;;0.50;0.50;;;1.40;99.90;;;;;;5136648;27;20462;-79
2022/12/04 06:08:56;;;;;;;0.30;0.30;;;1.30;99.90;;;;;;5136721;27;20446;-80
2022/12/04 06:11:25;;;;;;;0.50;0.50;;;1.30;99.90;;;;;;5136361;27;20443;-80
2022/12/04 06:13:55;;;;;;;0.40;0.40;;;1.30;99.90;;;;;;5136265;27;20524;-79
2022/12/04 06:16:24;;;;;;;0.33;0.30;;;1.30;99.90;;;;;;5136488;27;20873;-80
2022/12/04 06:18:52;;;;;;;1.83;0.50;;;1.30;99.90;;;;;;5136181;27;20953;-79
2022/12/04 06:21:19;;;;;;;1.27;0.87;;;1.20;99.90;;;;;;5135988;27;20517;-79
2022/12/04 06:23:47;;;;;;;0.30;0.30;;;1.20;99.90;;;;;;5136374;27;20544;-79
2022/12/04 06:26:14;;;;;;;0.40;0.40;;;1.20;99.90;;;;;;5136262;27;20459;-79
2022/12/04 06:28:41;;;;;;;0.47;0.47;;;1.20;99.90;;;;;;5136277;27;20442;-79
2022/12/04 06:31:11;;;;;;;0.50;0.50;;;1.30;99.90;;;;;;5136219;27;20430;-79
2022/12/04 06:33:39;;;;;;;0.30;0.30;;;1.30;99.90;;;;;;5136355;27;20925;-79
2022/12/04 06:36:08;;;;;;;0.30;0.20;;;1.40;99.90;;;;;;5136072;27;20463;-80
2022/12/04 06:38:35;;;;;;;0.40;0.30;;;1.40;99.90;;;;;;5136166;27;20481;-79
2022/12/04 06:41:04;;;;;;;0.40;0.40;;;1.40;99.90;;;;;;5135953;27;20478;-80
2022/12/04 06:43:31;;;;;;;0.30;0.30;;;1.40;99.90;;;;;;5136033;27;20809;-79
2022/12/04 06:46:00;;;;;;;0.47;0.37;;;1.40;99.90;;;;;;5135888;27;20544;-80
2022/12/04 06:48:29;;;;;;;0.60;0.60;;;1.30;99.90;;;;;;5135604;27;20442;-79
2022/12/04 06:50:59;;;;;;;0.43;0.43;;;1.30;99.90;;;;;;5135838;27;20522;-79
2022/12/04 06:53:29;;;;;;;0.30;0.30;;;1.30;99.90;;;;;;5135814;27;20447;-79
2022/12/04 06:55:56;;;;;;;0.30;0.30;;;1.40;99.90;;;;;;5135678;27;20503;-79
2022/12/04 06:58:23;;;;;;;1.27;0.80;;;1.40;99.90;;;;;;5135741;27;20456;-80
2022/12/04 07:00:50;;;;;;;0.40;0.40;;;1.40;99.90;;;;;;5135235;27;20460;-80
2022/12/04 07:03:16;;;;;;;0.30;0.30;;;1.40;99.90;;;;;;5135644;27;20422;-80
2022/12/04 07:05:44;;;;;;;0.40;0.40;;;1.40;99.90;;;;;;5135124;27;20844;-79
2022/12/04 07:08:11;;;;;;;0.53;0.53;;;1.40;99.90;;;;;;5135243;27;20900;-79
2022/12/04 07:10:38;;;;;;;0.60;0.40;;;1.50;99.90;;;;;;5135484;27;20538;-80
2022/12/04 07:13:06;;;;;;;0.30;0.30;;;1.40;99.90;;;;;;5135397;27;20466;-80
2022/12/04 07:15:34;;;;;;;0.40;0.40;;;1.30;99.90;;;;;;5135282;27;20501;-80
2022/12/04 07:18:01;;;;;;;0.30;0.30;;;1.30;99.90;;;;;;5135136;27;20447;-79
2022/12/04 07:20:28;;;;;;;0.30;0.30;;;1.30;99.90;;;;;;5134812;27;20486;-79
2022/12/04 07:22:56;;;;;;;2.10;1.23;;;1.20;99.90;;;;;;5134529;27;20443;-79
2022/12/04 07:25:23;;;;;;;1.57;0.50;;;1.30;99.90;;;;;;5135160;27;20486;-79
2022/12/04 07:27:50;;;;;;;0.30;0.30;;;1.30;99.90;;;;;;5134826;27;20479;-79
2022/12/04 07:30:17;;;;;;;0.50;0.50;;;1.30;99.90;;;;;;5135040;27;20455;-79
2022/12/04 07:32:44;;;;;;;0.40;0.40;;;1.30;99.90;;;;;;5135558;27;20438;-80
2022/12/04 07:35:11;;;;;;;0.90;0.90;;;1.30;99.90;;;;;;5134938;27;20474;-79
2022/12/04 07:37:37;;;;;;;0.40;0.30;;;1.30;99.90;;;;;;5134780;27;20979;-79
2022/12/04 07:40:07;;;;;;;0.60;0.40;;;1.40;99.90;;;;;;5134969;27;20443;-79
2022/12/04 07:42:34;;;;;;;0.30;0.20;;;1.50;99.90;;;;;;5134775;27;20529;-80
2022/12/04 07:45:00;;;;;;;1.60;0.40;;;1.40;99.90;;;;;;5134773;27;20459;-79
2022/12/04 07:47:27;;;;;;;0.50;0.50;;;1.50;99.90;;;;;;5134811;27;20442;-79
2022/12/04 07:49:54;;;;;;;0.40;0.40;;;1.50;99.90;;;;;;5134775;27;20450;-79
2022/12/04 07:52:21;;;;;;;0.30;0.30;;;1.50;99.90;;;;;;5134749;27;20434;-79
2022/12/04 07:54:47;;;;;;;0.30;0.27;;;1.50;99.90;;;;;;5134625;27;20575;-79
2022/12/04 07:57:16;;;;;;;0.60;0.60;;;1.60;99.90;;;;;;5134404;27;20452;-80
2022/12/04 07:59:42;;;;;;;2.33;2.23;;;1.60;99.90;;;;;;5134261;27;20458;-79
2022/12/04 08:02:09;;;;;;;0.50;0.50;;;1.60;99.90;;;;;;5134259;27;20985;-79
2022/12/04 08:04:37;;;;;;;0.40;0.30;;;1.60;99.90;;;;;;5134191;27;21001;-79
2022/12/04 08:07:04;;;;;;;0.60;0.40;;;1.60;99.90;;;;;;5134281;27;20447;-79
2022/12/04 08:09:31;;;;;;;1.13;1.13;;;1.60;99.90;;;;;;5134600;27;20435;-79
2022/12/04 08:11:58;;;;;;;0.30;0.30;;;1.60;99.90;;;;;;5135280;27;20960;-81
2022/12/04 08:14:26;;;;;;;0.50;0.50;;;1.60;99.90;;;;;;5134544;27;20439;-81
2022/12/04 08:16:53;;;;;;;0.30;0.20;;;1.70;99.90;;;;;;5134308;27;20439;-81
2022/12/04 08:19:19;;;;;;;1.27;0.60;;;1.70;99.90;;;;;;5134337;27;20446;-81
2022/12/04 08:21:46;;;;;;;0.70;0.70;;;1.70;99.90;;;;;;5133848;27;21055;-81
2022/12/04 08:24:13;;;;;;;0.40;0.40;;;1.70;99.90;;;;;;5134077;27;20453;-82
2022/12/04 08:26:40;;;;;;;1.03;0.93;;;1.80;99.90;;;;;;5134350;27;20451;-82
2022/12/04 08:29:07;;;;;;;1.80;0.73;;;1.80;99.90;;;;;;5134278;27;20446;-82
2022/12/04 08:31:36;;;;;;;0.40;0.40;;;1.70;99.90;;;;;;5134304;27;20443;-82
2022/12/04 08:34:05;;;;;;;0.30;0.30;;;1.70;99.90;;;;;;5136668;27;20449;-81
2022/12/04 08:36:33;;;;;;;0.43;0.43;;;1.80;99.90;;;;;;5138413;27;20462;-82
2022/12/04 08:39:00;;;;;;;0.70;0.63;;;1.80;99.90;;;;;;5138461;27;20442;-82
2022/12/04 08:41:27;;;;;;;1.43;1.33;;;1.80;99.90;;;;;;5138325;27;20892;-81
2022/12/04 08:43:56;;;;;;;1.07;1.07;;;1.80;99.90;;;;;;5138346;27;20447;-82
2022/12/04 08:46:24;;;;;;;2.30;1.60;;;1.90;99.90;;;;;;5138287;27;20558;-81
2022/12/04 08:48:53;;;;;;;0.40;0.40;;;1.90;99.90;;;;;;5138241;27;20468;-82
2022/12/04 08:51:21;;;;;;;0.30;0.30;;;1.80;99.90;;;;;;5137888;27;20450;-82
2022/12/04 08:53:52;;;;;;;0.73;0.60;;;1.90;99.90;;;;;;5137807;27;20454;-82
2022/12/04 08:56:19;;;;;;;0.30;0.30;;;1.90;99.90;;;;;;5138054;27;20458;-82
2022/12/04 08:58:45;;;;;;;0.93;0.50;;;1.90;99.90;;;;;;5138033;27;20461;-81
2022/12/04 09:01:14;;;;;;;0.40;0.40;;;2.00;99.90;;;;;;5138099;27;20933;-82
2022/12/04 09:03:41;;;;;;;3.30;0.80;;;2.00;99.90;;;;;;5137965;27;20442;-82
2022/12/04 09:06:11;;;;;;;1.43;1.00;;;2.00;99.90;;;;;;5137826;27;20469;-82
2022/12/04 09:08:38;;;;;;;0.30;0.20;;;2.00;99.90;;;;;;5137547;27;20823;-82
2022/12/04 09:11:06;;;;;;;0.90;0.80;;;2.00;99.90;;;;;;5137824;27;20814;-82
2022/12/04 09:13:33;;;;;;;0.90;0.70;;;2.00;99.90;;;;;;5137812;27;20530;-82
2022/12/04 09:16:04;;;;;;;0.40;0.40;;;2.10;99.90;;;;;;5137677;27;20466;-82
2022/12/04 09:18:31;;;;;;;12.63;1.20;;;2.10;99.90;;;;;;5137797;27;20454;-82
2022/12/04 09:21:00;;;;;;;1.00;0.53;;;2.00;99.90;;;;;;5137196;27;21042;-82
2022/12/04 09:23:30;;;;;;;1.27;0.40;;;2.00;99.90;;;;;;5137634;27;20449;-82
2022/12/04 09:25:56;;;;;;;0.43;0.43;;;2.00;99.90;;;;;;5137477;27;20459;-82
2022/12/04 09:28:23;;;;;;;2.97;0.43;;;2.00;99.90;;;;;;5137527;27;20449;-82
2022/12/04 09:30:57;;;;;;;1.00;1.00;;;2.00;99.90;;;;;;5137506;27;20447;-82
2022/12/04 09:33:24;;;;;;;0.77;0.73;;;2.10;99.90;;;;;;5137432;27;20442;-82
2022/12/04 09:35:51;;;;;;;0.60;0.60;;;2.10;99.90;;;;;;5137344;27;20463;-82
2022/12/04 09:38:18;;;;;;;0.77;0.50;;;2.10;99.90;;;;;;5137875;27;20446;-82
2022/12/04 09:40:53;;;;;;;1.13;1.03;;;2.00;99.90;;;;;;5137326;27;20450;-82
2022/12/04 09:43:30;;;;;;;0.30;0.30;;;2.00;99.90;;;;;;5136942;27;20458;-82
2022/12/04 09:46:01;;;;;;;5.60;1.23;;;1.90;99.90;;;;;;5136169;27;20473;-82
2022/12/04 09:48:33;;;;;;;0.40;0.40;;;2.00;99.90;;;;;;5137222;27;20431;-82
2022/12/04 09:51:01;;;;;;;2.50;0.73;;;2.00;99.90;;;;;;5136858;27;20874;-82
2022/12/04 09:53:35;;;;;;;0.73;0.50;;;2.10;99.90;;;;;;5137033;27;20439;-82
2022/12/04 09:56:06;;;;;;;1.33;1.23;;;2.10;99.90;;;;;;5136988;27;20462;-82
2022/12/04 09:58:39;;;;;;;0.30;0.30;;;2.20;99.90;;;;;;5136941;27;20423;-82
2022/12/04 10:01:14;;;;;;;0.30;0.30;;;2.10;99.90;;;;;;5136931;27;20431;-82
2022/12/04 10:03:41;;;;;;;0.40;0.40;;;2.20;99.90;;;;;;5137454;27;20425;-82
2022/12/04 10:06:13;;;;;;;0.30;0.30;;;2.20;99.90;;;;;;5136708;27;20473;-82
2022/12/04 10:08:42;;;;;;;0.60;0.53;;;2.20;99.90;;;;;;5136793;27;20433;-82
2022/12/04 10:11:16;;;;;;;1.37;1.00;;;2.20;99.90;;;;;;5136702;27;20435;-82
2022/12/04 10:14:05;;;;;;;0.30;0.30;;;2.20;99.90;;;;;;5136696;27;20404;-82
2022/12/04 10:16:44;;;;;;;0.40;0.40;;;2.30;99.90;;;;;;5136555;27;20463;-82
2022/12/04 10:19:19;;;;;;;0.40;0.40;;;2.30;99.90;;;;;;5136580;27;20794;-82
2022/12/04 10:21:58;;;;;;;0.63;0.57;;;2.30;99.90;;;;;;5135992;27;20996;-82
2022/12/04 10:24:37;;;;;;;0.40;0.40;;;2.20;99.90;;;;;;5136414;27;20431;-82
2022/12/04 10:27:11;;;;;;;0.77;0.77;;;2.20;99.90;;;;;;5136153;27;20907;-82
2022/12/04 10:29:42;;;;;;;0.30;0.30;;;2.20;99.90;;;;;;5136330;27;20434;-82
2022/12/04 10:32:18;;;;;;;0.40;0.37;;;2.30;99.90;;;;;;5136886;27;20432;-82
2022/12/04 10:34:46;;;;;;;0.73;0.73;;;2.30;99.90;;;;;;5135898;27;20978;-82
2022/12/04 10:37:15;;;;;;;0.97;0.97;;;2.40;99.90;;;;;;5135914;27;20961;-82
2022/12/04 10:39:46;;;;;;;0.70;0.70;;;2.30;99.90;;;;;;5136118;27;20488;-82
2022/12/04 10:42:24;;;;;;;0.70;0.70;;;2.40;99.90;;;;;;5136055;27;20463;-82
2022/12/04 10:44:51;;;;;;;4.37;1.03;;;2.40;99.90;;;;;;5135678;27;20981;-82
2022/12/04 10:47:20;;;;;;;0.63;0.63;;;2.40;99.90;;;;;;5135643;27;20507;-82
2022/12/04 10:49:48;;;;;;;0.60;0.60;;;2.50;99.90;;;;;;5135903;27;20439;-82
2022/12/04 10:52:17;;;;;;;0.97;0.87;;;2.50;99.90;;;;;;5135569;27;20446;-82
2022/12/04 10:54:47;;;;;;;0.30;0.30;;;2.50;99.90;;;;;;5135625;27;20475;-82
2022/12/04 10:57:16;;;;;;;0.47;0.47;;;2.50;99.90;;;;;;5135285;27;20839;-82
2022/12/04 10:59:51;;;;;;;1.00;0.60;;;2.60;99.90;;;;;;5135624;27;20462;-82
2022/12/04 11:02:21;;;;;;;1.27;1.17;;;2.50;99.90;;;;;;5135494;27;20467;-82
2022/12/04 11:04:55;;;;;;;0.80;0.80;;;2.50;99.90;;;;;;5135462;27;20467;-82
2022/12/04 11:07:24;;;;;;;0.63;0.63;;;2.50;99.90;;;;;;5135546;27;20423;-82
2022/12/04 11:09:56;;;;;;;1.67;0.67;;;2.40;99.90;;;;;;5135523;27;20964;-82
2022/12/04 11:12:24;;;;;;;0.60;0.60;;;2.30;99.90;;;;;;5135805;27;20438;-82
2022/12/04 11:15:01;;;;;;;0.40;0.40;;;2.30;99.90;;;;;;5135782;27;20469;-82
2022/12/04 11:17:28;;;;;;;0.47;0.43;;;2.30;99.90;;;;;;5135627;27;20912;-82
2022/12/04 11:20:02;;;;;;;0.50;0.47;;;2.40;99.90;;;;;;5135621;27;20473;-83
2022/12/04 11:22:29;;;;;;;1.53;0.40;;;2.40;99.90;;;;;;5135882;27;20462;-82
2022/12/04 11:24:58;;;;;;;0.93;0.70;;;2.50;99.90;;;;;;5135885;27;20462;-82
2022/12/04 11:27:31;;;;;;;1.90;1.13;;;2.50;99.90;;;;;;5135793;27;20817;-82
2022/12/04 11:30:01;;;;;;;0.90;0.67;;;2.60;99.90;;;;;;5135918;27;20932;-82
2022/12/04 11:32:30;;;;;;;0.30;0.30;;;2.60;99.90;;;;;;5135303;27;20438;-82
2022/12/04 11:35:00;;;;;;;0.60;0.60;;;2.60;99.90;;;;;;5135072;27;20466;-82
2022/12/04 11:37:30;;;;;;;0.40;0.37;;;2.50;99.90;;;;;;5135153;27;20438;-82
2022/12/04 11:39:57;;;;;;;0.90;0.73;;;2.50;99.90;;;;;;5135130;27;20447;-81
2022/12/04 11:42:27;;;;;;;0.40;0.40;;;2.40;99.90;;;;;;5134896;27;20561;-80
2022/12/04 11:44:56;;;;;;;0.40;0.40;;;2.40;99.90;;;;;;5134857;27;20473;-80
2022/12/04 11:47:26;;;;;;;2.47;1.33;;;2.40;99.90;;;;;;5134838;27;20457;-80
2022/12/04 11:50:11;;;;;;;0.70;0.37;;;2.30;99.90;;;;;;5134837;27;20447;-81
2022/12/04 11:52:54;;;;;;;0.40;0.40;;;2.40;99.90;;;;;;5134938;27;20423;-80
2022/12/04 11:55:25;;;;;;;0.30;0.30;;;2.40;99.90;;;;;;5134749;27;20477;-81
2022/12/04 11:58:20;;;;;;;0.47;0.47;;;2.50;99.90;;;;;;5134845;27;20431;-81
2022/12/04 12:00:58;;;;;;;0.40;0.33;;;2.40;99.90;;;;;;5135111;27;20402;-81
2022/12/04 12:03:30;;;;;;;0.30;0.30;;;2.40;99.90;;;;;;5134822;27;20470;-81
2022/12/04 12:06:13;;;;;;;0.37;0.37;;;2.50;99.90;;;;;;5134228;27;20989;-82
2022/12/04 12:09:01;;;;;;;0.30;0.30;;;2.40;99.90;;;;;;5134305;27;20430;-79
2022/12/04 12:11:34;;;;;;;0.30;0.30;;;2.40;99.90;;;;;;5132169;27;20458;-79
2022/12/04 12:14:16;;;;;;;0.30;0.30;;;2.40;99.90;;;;;;5134546;27;20426;-79
2022/12/04 12:16:53;;;;;;;2.17;0.63;;;2.40;99.90;;;;;;5134550;27;20439;-79
2022/12/04 12:20:02;;;;;;;4.73;0.87;;;2.40;99.90;;;;;;5134533;27;20430;-79
2022/12/04 12:22:42;;;;;;;0.80;0.80;;;2.50;99.90;;;;;;5134424;27;20466;-79
2022/12/04 12:25:18;;;;;;;3.03;0.40;;;2.50;99.90;;;;;;5134379;27;20471;-80
2022/12/04 12:28:04;;;;;;;1.10;1.00;;;2.60;99.90;;;;;;5134446;27;20423;-79
2022/12/04 12:30:43;;;;;;;0.63;0.53;;;2.50;99.90;;;;;;5134346;27;20431;-79
2022/12/04 12:33:17;;;;;;;1.77;0.63;;;2.50;99.90;;;;;;5134029;27;20917;-79
2022/12/04 12:35:51;;;;;;;0.40;0.30;;;2.50;99.90;;;;;;5134208;27;20590;-78
2022/12/04 12:38:21;;;;;;;5.83;1.70;;;2.60;99.90;;;;;;5134868;27;20434;-79
2022/12/04 12:40:54;;;;;;;1.57;0.83;;;2.60;99.90;;;;;;5134207;27;20439;-79
2022/12/04 12:43:28;;;;;;;4.93;1.73;;;2.50;99.90;;;;;;5136833;27;20462;-79
2022/12/04 12:46:04;;;;;;;0.70;0.60;;;2.50;99.90;;;;;;5134197;27;20494;-79
2022/12/04 12:48:35;;;;;;;0.40;0.33;;;2.50;99.90;;;;;;5134168;27;20427;-79
2022/12/04 12:51:08;;;;;;;13.70;1.87;;;2.50;99.90;;;;;;5133818;27;20436;-80
2022/12/04 12:53:41;;;;;;;2.53;0.80;;;2.50;99.90;;;;;;5134130;27;20419;-80
2022/12/04 12:56:11;;;;;;;0.80;0.47;;;2.60;99.90;;;;;;5133709;27;20832;-80
2022/12/04 12:58:42;;;;;;;3.23;0.83;;;2.60;99.90;;;;;;5134020;27;20447;-80
2022/12/04 13:01:16;;;;;;;0.30;0.30;;;2.60;99.90;;;;;;5134082;27;20437;-80
2022/12/04 13:03:53;;;;;;;2.63;0.70;;;2.60;99.90;;;;;;5133623;27;21037;-80
2022/12/04 13:06:26;;;;;;;1.60;0.83;;;2.70;99.90;;;;;;5133905;27;20464;-80
2022/12/04 13:09:05;;;;;;;0.70;0.70;;;2.70;99.90;;;;;;5134016;27;20786;-81
2022/12/04 13:11:32;;;;;;;0.60;0.60;;;2.70;99.90;;;;;;5133959;27;20438;-80
2022/12/04 13:14:02;;;;;;;0.97;0.97;;;2.80;99.90;;;;;;5133879;27;20445;-80
2022/12/04 13:16:35;;;;;;;0.40;0.40;;;2.80;99.90;;;;;;5133847;27;20827;-81
2022/12/04 13:19:11;;;;;;;2.00;0.90;;;2.90;99.90;;;;;;5133914;27;20443;-80
2022/12/04 13:21:43;;;;;;;0.73;0.50;;;2.80;99.90;;;;;;5136472;27;20474;-80
2022/12/04 13:24:37;;;;;;;1.17;0.70;;;2.80;99.90;;;;;;5137577;27;20462;-80
2022/12/04 13:27:09;;;;;;;0.30;0.30;;;2.80;99.90;;;;;;5137610;27;20435;-80
2022/12/04 13:29:50;;;;;;;0.50;0.50;;;2.90;99.90;;;;;;5137239;27;20434;-80